createdAt,value
2018-02-25T00:01:43.920Z,52.77
2018-02-25T00:05:07.260Z,52.96
2018-02-25T00:08:30.607Z,52.64
2018-02-25T00:11:54.711Z,52.33
2018-02-25T00:15:17.974Z,52.58
2018-02-25T00:18:41.318Z,52.86
2018-02-25T00:22:05.399Z,52.83
2018-02-25T00:25:28.681Z,52.69
2018-02-25T00:28:52.789Z,52.96
2018-02-25T00:32:16.903Z,52.76
2018-02-25T00:35:41.000Z,52.82
2018-02-25T00:39:05.121Z,52.55
2018-02-25T00:42:28.414Z,52.39
2018-02-25T00:45:51.694Z,52.66
2018-02-25T00:49:15.122Z,52.24
2018-02-25T00:52:38.400Z,53.05
2018-02-25T00:56:02.478Z,53.38
2018-02-25T00:59:26.574Z,52.98
2018-02-25T01:02:50.673Z,52.54
2018-02-25T01:06:14.738Z,52.33
2018-02-25T01:09:38.881Z,52.89
2018-02-25T01:13:03.766Z,52.54
2018-02-25T01:16:27.052Z,52.56
2018-02-25T01:19:50.421Z,52.42
2018-02-25T01:23:13.739Z,53.13
2018-02-25T01:26:37.124Z,52.72
2018-02-25T01:30:00.516Z,52.84
2018-02-25T01:33:23.853Z,52.92
2018-02-25T01:36:47.995Z,52.92
2018-02-25T01:40:11.295Z,52.94
2018-02-25T01:43:34.708Z,52.56
2018-02-25T01:46:57.986Z,52.75
2018-02-25T01:50:21.301Z,53.16
2018-02-25T01:53:44.613Z,53.34
2018-02-25T01:57:08.057Z,52.63
2018-02-25T02:00:31.386Z,53.18
2018-02-25T02:03:55.580Z,52.98
2018-02-25T02:07:18.884Z,52.95
2018-02-25T02:10:42.934Z,52.10
2018-02-25T02:14:07.126Z,52.66
2018-02-25T02:17:31.230Z,52.52
2018-02-25T02:20:54.514Z,52.51
2018-02-25T02:24:17.822Z,52.89
2018-02-25T02:27:41.195Z,52.69
2018-02-25T02:31:04.483Z,52.99
2018-02-25T02:34:28.578Z,53.48
2018-02-25T02:37:52.628Z,53.23
2018-02-25T02:41:15.966Z,52.79
2018-02-25T02:44:39.267Z,52.69
2018-02-25T02:48:02.568Z,52.46
2018-02-25T02:51:26.650Z,52.89
2018-02-25T02:54:50.748Z,53.49
2018-02-25T02:58:14.835Z,52.91
2018-02-25T03:01:38.917Z,53.01
2018-02-25T03:05:02.954Z,53.03
2018-02-25T03:08:27.752Z,53.57
2018-02-25T03:11:51.877Z,53.06
2018-02-25T03:15:15.253Z,53.59
2018-02-25T03:18:38.533Z,53.39
2018-02-25T03:22:02.607Z,53.55
2018-02-25T03:25:25.890Z,54.50
2018-02-25T03:28:50.011Z,54.20
2018-02-25T03:32:13.381Z,54.02
2018-02-25T03:35:36.706Z,53.82
2018-02-25T03:39:00.752Z,54.21
2018-02-25T03:42:24.876Z,53.63
2018-02-25T03:45:48.247Z,53.70
2018-02-25T03:49:11.580Z,53.52
2018-02-25T03:52:35.667Z,53.40
2018-02-25T03:55:59.777Z,53.60
2018-02-25T03:59:23.084Z,52.99
2018-02-25T04:02:47.150Z,53.44
2018-02-25T04:06:10.445Z,52.85
2018-02-25T04:09:33.737Z,53.80
2018-02-25T04:12:57.865Z,53.61
2018-02-25T04:16:21.239Z,53.69
2018-02-25T04:19:44.618Z,53.46
2018-02-25T04:23:08.701Z,53.18
2018-02-25T04:26:32.099Z,52.80
2018-02-25T04:29:55.369Z,53.42
2018-02-25T04:33:18.668Z,53.26
2018-02-25T04:36:42.742Z,52.92
2018-02-25T04:40:06.846Z,52.82
2018-02-25T04:43:30.934Z,52.64
2018-02-25T04:46:55.015Z,53.51
2018-02-25T04:50:19.101Z,53.78
2018-02-25T04:53:43.154Z,53.76
2018-02-25T04:57:06.483Z,54.27
2018-02-25T05:00:29.784Z,53.82
2018-02-25T05:03:53.828Z,53.48
2018-02-25T05:07:17.221Z,54.08
2018-02-25T05:10:40.588Z,54.21
2018-02-25T05:14:03.958Z,53.44
2018-02-25T05:17:27.395Z,52.88
2018-02-25T05:20:51.436Z,52.93
2018-02-25T05:24:15.496Z,53.51
2018-02-25T05:27:38.825Z,53.46
2018-02-25T05:31:02.174Z,54.78
2018-02-25T05:34:26.201Z,54.83
2018-02-25T05:37:49.507Z,54.01
2018-02-25T05:41:13.778Z,54.05
2018-02-25T05:44:37.867Z,54.18
2018-02-25T05:48:01.186Z,54.49
2018-02-25T05:51:24.567Z,54.51
2018-02-25T05:54:47.947Z,53.86
2018-02-25T05:58:12.000Z,54.12
2018-02-25T06:01:35.266Z,53.65
2018-02-25T06:04:58.585Z,54.36
2018-02-25T06:08:21.867Z,54.14
2018-02-25T06:11:45.211Z,54.63
2018-02-25T06:15:09.262Z,53.89
2018-02-25T06:18:32.546Z,54.26
2018-02-25T06:21:55.899Z,54.12
2018-02-25T06:25:19.190Z,54.27
2018-02-25T06:28:42.491Z,54.07
2018-02-25T06:32:05.877Z,54.59
2018-02-25T06:35:29.249Z,54.93
2018-02-25T06:38:52.683Z,55.24
2018-02-25T06:42:16.783Z,55.38
2018-02-25T06:45:40.075Z,54.46
2018-02-25T06:49:03.433Z,54.80
2018-02-25T06:52:26.769Z,53.83
2018-02-25T06:55:50.662Z,54.79
2018-02-25T06:59:14.821Z,55.40
2018-02-25T07:02:38.176Z,56.56
2018-02-25T07:06:02.239Z,54.89
2018-02-25T07:09:26.492Z,55.88
2018-02-25T07:12:50.667Z,55.37
2018-02-25T07:16:14.033Z,56.82
2018-02-25T07:19:37.479Z,55.11
2018-02-25T07:23:01.649Z,55.46
2018-02-25T07:26:25.759Z,56.11
2018-02-25T07:29:49.852Z,55.92
2018-02-25T07:33:13.284Z,55.11
2018-02-25T07:36:36.762Z,55.54
2018-02-25T07:40:00.125Z,54.77
2018-02-25T07:43:23.555Z,55.16
2018-02-25T07:46:46.955Z,55.18
2018-02-25T07:50:10.399Z,55.54
2018-02-25T07:53:34.601Z,56.29
2018-02-25T07:56:58.852Z,56.43
2018-02-25T08:00:22.954Z,56.28
2018-02-25T08:03:47.766Z,56.33
2018-02-25T08:07:11.238Z,56.63
2018-02-25T08:10:34.745Z,56.21
2018-02-25T08:13:58.313Z,56.16
2018-02-25T08:17:22.501Z,55.98
2018-02-25T08:20:46.653Z,56.21
2018-02-25T08:24:10.246Z,56.75
2018-02-25T08:27:33.846Z,56.64
2018-02-25T08:30:58.194Z,55.81
2018-02-25T08:34:22.464Z,56.43
2018-02-25T08:37:46.915Z,56.83
2018-02-25T08:41:10.306Z,56.12
2018-02-25T08:44:33.767Z,56.16
2018-02-25T08:47:58.205Z,55.96
2018-02-25T08:51:22.393Z,56.04
2018-02-25T08:54:46.592Z,56.63
2018-02-25T08:58:10.003Z,56.99
2018-02-25T09:01:33.625Z,55.86
2018-02-25T09:04:58.831Z,54.98
2018-02-25T09:08:22.368Z,55.35
2018-02-25T09:11:46.666Z,54.94
2018-02-25T09:15:13.409Z,55.21
2018-02-25T09:18:36.736Z,54.87
2018-02-25T09:22:01.011Z,54.05
2018-02-25T09:25:24.421Z,54.01
2018-02-25T09:28:50.537Z,54.56
2018-02-25T09:32:14.655Z,55.03
2018-02-25T09:35:38.074Z,54.54
2018-02-25T09:39:01.494Z,55.10
2018-02-25T09:42:24.826Z,54.51
2018-02-25T09:45:48.904Z,54.92
2018-02-25T09:49:12.970Z,55.43
2018-02-25T09:52:36.360Z,55.04
2018-02-25T09:55:59.729Z,55.09
2018-02-25T09:59:23.819Z,54.27
2018-02-25T10:02:47.165Z,53.26
2018-02-25T10:06:10.453Z,53.94
2018-02-25T10:09:33.765Z,53.51
2018-02-25T10:12:57.145Z,53.65
2018-02-25T10:16:20.457Z,53.10
2018-02-25T10:19:43.757Z,52.06
2018-02-25T10:23:07.077Z,51.59
2018-02-25T10:26:30.406Z,52.23
2018-02-25T10:29:53.761Z,52.28
2018-02-25T10:33:17.941Z,53.31
2018-02-25T10:36:42.072Z,53.71
2018-02-25T10:40:05.438Z,53.14
2018-02-25T10:43:29.580Z,53.00
2018-02-25T10:46:52.892Z,53.03
2018-02-25T10:50:16.213Z,52.22
2018-02-25T10:53:39.581Z,52.39
2018-02-25T10:57:02.888Z,51.76
2018-02-25T11:00:31.960Z,51.73
2018-02-25T11:03:56.045Z,51.99
2018-02-25T11:07:19.348Z,50.60
2018-02-25T11:10:42.699Z,49.77
2018-02-25T11:14:06.940Z,49.92
2018-02-25T11:17:30.362Z,51.24
2018-02-25T11:20:54.534Z,50.65
2018-02-25T11:24:17.825Z,50.43
2018-02-25T11:27:41.118Z,50.55
2018-02-25T11:31:04.488Z,51.14
2018-02-25T11:34:27.800Z,50.36
2018-02-25T11:37:51.126Z,51.64
2018-02-25T11:41:14.474Z,50.79
2018-02-25T11:44:37.841Z,50.68
2018-02-25T11:48:02.027Z,50.30
2018-02-25T11:51:26.076Z,49.69
2018-02-25T11:54:49.431Z,50.13
2018-02-25T11:58:13.569Z,49.57
2018-02-25T12:01:37.649Z,49.06
2018-02-25T12:05:01.746Z,49.33
2018-02-25T12:08:25.858Z,50.48
2018-02-25T12:11:49.293Z,50.47
2018-02-25T12:15:12.602Z,49.37
2018-02-25T12:18:36.001Z,49.41
2018-02-25T12:21:59.372Z,48.79
2018-02-25T12:25:22.762Z,47.83
2018-02-25T12:28:46.165Z,48.61
2018-02-25T12:32:10.251Z,48.18
2018-02-25T12:35:34.337Z,48.43
2018-02-25T12:38:58.650Z,47.99
2018-02-25T12:42:21.991Z,47.73
2018-02-25T12:45:46.060Z,47.68
2018-02-25T12:49:09.526Z,46.84
2018-02-25T12:52:32.855Z,47.30
2018-02-25T12:55:56.997Z,45.15
2018-02-25T12:59:21.127Z,45.75
2018-02-25T13:02:44.550Z,45.21
2018-02-25T13:06:07.830Z,45.57
2018-02-25T13:09:31.936Z,45.54
2018-02-25T13:12:55.275Z,45.38
2018-02-25T13:16:18.646Z,46.53
2018-02-25T13:19:41.926Z,46.70
2018-02-25T13:23:06.053Z,45.61
2018-02-25T13:26:29.431Z,45.80
2018-02-25T13:29:53.558Z,44.80
2018-02-25T13:33:16.951Z,44.21
2018-02-25T13:36:41.008Z,44.37
2018-02-25T13:40:04.342Z,44.45
2018-02-25T13:43:28.516Z,44.82
2018-02-25T13:46:52.029Z,44.74
2018-02-25T13:50:15.371Z,44.15
2018-02-25T13:53:38.793Z,43.26
2018-02-25T13:57:02.895Z,44.28
2018-02-25T14:00:26.143Z,43.56
2018-02-25T14:03:49.513Z,44.21
2018-02-25T14:07:12.881Z,44.63
2018-02-25T14:10:36.253Z,43.70
2018-02-25T14:13:59.541Z,42.80
2018-02-25T14:17:22.823Z,42.67
2018-02-25T14:20:46.105Z,42.83
2018-02-25T14:24:09.479Z,43.07
2018-02-25T14:27:32.762Z,43.93
2018-02-25T14:30:56.914Z,42.20
2018-02-25T14:34:20.186Z,43.46
2018-02-25T14:37:43.521Z,42.03
2018-02-25T14:41:06.822Z,43.13
2018-02-25T14:44:30.149Z,41.85
2018-02-25T14:47:53.457Z,42.19
2018-02-25T14:51:16.764Z,42.34
2018-02-25T14:54:40.913Z,41.53
2018-02-25T14:58:04.256Z,41.07
2018-02-25T15:01:27.625Z,39.82
2018-02-25T15:04:51.041Z,40.08
2018-02-25T15:08:14.393Z,39.92
2018-02-25T15:11:38.429Z,39.78
2018-02-25T15:15:01.773Z,39.84
2018-02-25T15:18:25.095Z,39.26
2018-02-25T15:21:48.463Z,38.92
2018-02-25T15:25:11.838Z,39.17
2018-02-25T15:28:35.128Z,38.50
2018-02-25T15:31:58.527Z,38.98
2018-02-25T15:35:21.807Z,38.72
2018-02-25T15:38:45.985Z,38.38
2018-02-25T15:42:09.480Z,39.09
2018-02-25T15:45:32.850Z,41.13
2018-02-25T15:48:57.061Z,39.66
2018-02-25T15:52:20.432Z,39.32
2018-02-25T15:55:44.160Z,38.88
2018-02-25T15:59:07.578Z,38.73
2018-02-25T16:02:30.895Z,37.93
2018-02-25T16:05:54.375Z,38.85
2018-02-25T16:09:17.701Z,39.45
2018-02-25T16:12:41.074Z,38.72
2018-02-25T16:16:05.288Z,39.37
2018-02-25T16:19:28.787Z,38.79
2018-02-25T16:22:52.988Z,39.30
2018-02-25T16:26:17.080Z,39.74
2018-02-25T16:29:41.252Z,40.26
2018-02-25T16:33:05.489Z,39.99
2018-02-25T16:36:28.973Z,39.57
2018-02-25T16:39:53.114Z,40.36
2018-02-25T16:43:17.223Z,40.51
2018-02-25T16:46:40.610Z,41.10
2018-02-25T16:50:04.671Z,39.95
2018-02-25T16:53:27.934Z,40.38
2018-02-25T16:56:51.286Z,40.63
2018-02-25T17:00:15.357Z,41.23
2018-02-25T17:03:38.715Z,41.05
2018-02-25T17:07:02.006Z,41.52
2018-02-25T17:10:26.137Z,41.14
2018-02-25T17:13:49.490Z,42.10
2018-02-25T17:17:12.831Z,41.31
2018-02-25T17:20:36.138Z,41.20
2018-02-25T17:23:59.484Z,40.99
2018-02-25T17:27:23.569Z,40.02
2018-02-25T17:30:47.700Z,39.63
2018-02-25T17:34:11.169Z,38.96
2018-02-25T17:37:34.464Z,39.46
2018-02-25T17:40:57.811Z,39.96
2018-02-25T17:44:21.092Z,39.66
2018-02-25T17:47:45.156Z,39.74
2018-02-25T17:51:08.460Z,39.54
2018-02-25T17:54:31.746Z,40.34
2018-02-25T17:57:55.062Z,40.47
2018-02-25T18:01:18.417Z,40.11
2018-02-25T18:04:41.735Z,39.83
2018-02-25T18:08:05.056Z,40.23
2018-02-25T18:11:28.430Z,39.99
2018-02-25T18:14:51.867Z,39.84
2018-02-25T18:18:15.168Z,39.70
2018-02-25T18:21:38.556Z,40.79
2018-02-25T18:25:02.902Z,40.74
2018-02-25T18:28:26.975Z,40.50
2018-02-25T18:31:50.312Z,40.14
2018-02-25T18:35:14.397Z,40.14
2018-02-25T18:38:38.492Z,40.61
2018-02-25T18:42:02.620Z,40.39
2018-02-25T18:45:26.711Z,40.84
2018-02-25T18:48:50.779Z,42.10
2018-02-25T18:52:14.117Z,44.64
2018-02-25T18:55:38.378Z,40.56
2018-02-25T18:59:01.772Z,40.62
2018-02-25T19:02:25.087Z,40.57
2018-02-25T19:05:48.474Z,40.64
2018-02-25T19:09:12.531Z,39.66
2018-02-25T19:12:37.351Z,40.53
2018-02-25T19:16:00.742Z,40.80
2018-02-25T19:19:25.096Z,40.80
2018-02-25T19:22:54.684Z,41.65
2018-02-25T19:26:18.993Z,40.67
2018-02-25T19:29:43.103Z,41.74
2018-02-25T19:33:06.407Z,41.24
2018-02-25T19:36:35.162Z,41.06
2018-02-25T19:40:03.621Z,41.03
2018-02-25T19:43:27.819Z,41.58
2018-02-25T19:46:51.927Z,41.62
2018-02-25T19:50:15.310Z,41.46
2018-02-25T19:53:38.737Z,41.66
2018-02-25T19:57:02.360Z,42.57
2018-02-25T20:00:25.813Z,41.80
2018-02-25T20:03:49.370Z,43.87
2018-02-25T20:07:13.554Z,43.10
2018-02-25T20:10:38.102Z,41.69
2018-02-25T20:14:02.468Z,41.84
2018-02-25T20:17:25.981Z,42.78
2018-02-25T20:20:50.184Z,43.09
2018-02-25T20:24:13.741Z,41.68
2018-02-25T20:27:38.768Z,42.59
2018-02-25T20:31:02.158Z,43.23
2018-02-25T20:34:29.453Z,42.48
2018-02-25T20:37:52.880Z,43.82
2018-02-25T20:41:16.388Z,43.58
2018-02-25T20:44:40.517Z,44.05
2018-02-25T20:48:04.703Z,43.14
2018-02-25T20:51:28.867Z,42.75
2018-02-25T20:54:52.337Z,42.74
2018-02-25T20:58:15.932Z,45.10
2018-02-25T21:01:39.293Z,44.10
2018-02-25T21:05:02.796Z,44.95
2018-02-25T21:08:26.872Z,43.30
2018-02-25T21:11:51.158Z,43.76
2018-02-25T21:15:15.225Z,43.12
2018-02-25T21:18:38.562Z,43.31
2018-02-25T21:22:02.794Z,44.28
2018-02-25T21:25:26.830Z,44.51
2018-02-25T21:28:50.207Z,44.51
2018-02-25T21:32:14.302Z,44.60
2018-02-25T21:35:38.428Z,44.32
2018-02-25T21:39:01.726Z,44.74
2018-02-25T21:42:25.138Z,45.12
2018-02-25T21:45:49.266Z,45.09
2018-02-25T21:49:13.419Z,45.15
2018-02-25T21:52:51.289Z,45.59
2018-02-25T21:56:20.122Z,45.44
2018-02-25T21:59:48.851Z,46.02
2018-02-25T22:07:07.598Z,46.12
2018-02-25T22:10:31.727Z,46.06
2018-02-25T22:13:55.150Z,46.43
2018-02-25T22:17:18.600Z,45.86
2018-02-25T22:20:42.060Z,45.51
2018-02-25T22:24:06.217Z,46.50
2018-02-25T22:27:29.503Z,45.52
2018-02-25T22:30:52.802Z,45.36
2018-02-25T22:34:16.092Z,46.29
2018-02-25T22:37:40.226Z,46.47
2018-02-25T22:41:03.600Z,45.95
2018-02-25T22:44:26.971Z,46.52
2018-02-25T22:47:50.292Z,46.58
2018-02-25T22:51:14.351Z,46.91
2018-02-25T22:54:37.690Z,46.91
2018-02-25T22:58:01.013Z,46.59
2018-02-25T23:01:24.328Z,46.49
2018-02-25T23:04:47.631Z,47.24
2018-02-25T23:08:11.020Z,46.98
2018-02-25T23:11:34.396Z,46.91
2018-02-25T23:14:58.525Z,46.42
2018-02-25T23:18:21.843Z,46.62
2018-02-25T23:21:45.136Z,46.93
2018-02-25T23:25:09.261Z,47.11
2018-02-25T23:28:33.457Z,46.96
2018-02-25T23:31:57.577Z,47.31
2018-02-25T23:35:20.864Z,46.90
2018-02-25T23:38:44.968Z,47.95
2018-02-25T23:42:08.276Z,47.47
2018-02-25T23:45:32.344Z,47.48
2018-02-25T23:48:55.717Z,47.72
2018-02-25T23:52:19.766Z,47.07
2018-02-25T23:55:43.892Z,47.02
2018-02-25T23:59:08.991Z,47.45
